KMYF

Montgomery-Gibbs Executive Airport

San Diego, California, USA
METAR KMYF 181453Z 00000KT 10SM CLR 13/06 A3009 RMK AO2 SLP187 T01330056 51007
Observed Flight Rules
Jan-18 @ 14:53 UTC (49 minutes ago) Visual Flight Rules
Wind Visibility Clouds
Calm 10 miles
  • Clear skies
Temperatures Readings
Current 13°C / 55°F
Dewpoint 6°C / 43°F
Humidity 63%
Altimeter 30.09" Hg
Pressure 1018.7 hPa
Elevation 136
METAR KMYF 181453Z 00000KT 10SM CLR 13/06 A3009 RMK AO2 SLP187 T01330056 51007
Observed Flight Rules
Jan-18 @ 14:53 UTC
(49 minutes ago)
VFR
Wind Visibility
Calm 10 miles
Clouds
  • Clear skies
Temperature Dewpoint
13°C / 55°F 6°C / 43°F
Humidity Altimeter Pressure
63% 30.09" Hg 1018.7 hPa